sensor_id;sensor_type;location;lat;lon;timestamp;pressure;altitude;pressure_sealevel;temperature;humidity
49841;BME280;35738;49.890;5.930;2022-11-20T00:01:11;95178.97;;;4.12;100.00
49841;BME280;35738;49.890;5.930;2022-11-20T00:03:37;95182.41;;;4.18;100.00
49841;BME280;35738;49.890;5.930;2022-11-20T00:06:07;95178.06;;;4.17;100.00
49841;BME280;35738;49.890;5.930;2022-11-20T00:08:33;95187.84;;;4.18;100.00
49841;BME280;35738;49.890;5.930;2022-11-20T00:11:15;95187.84;;;4.18;100.00
49841;BME280;35738;49.890;5.930;2022-11-20T00:13:46;95183.69;;;4.20;100.00
49841;BME280;35738;49.890;5.930;2022-11-20T00:16:15;95180.59;;;4.13;100.00
49841;BME280;35738;49.890;5.930;2022-11-20T00:18:42;95180.09;;;4.11;100.00
49841;BME280;35738;49.890;5.930;2022-11-20T00:21:12;95177.69;;;4.09;100.00
49841;BME280;35738;49.890;5.930;2022-11-20T00:23:39;95178.06;;;4.17;100.00
49841;BME280;35738;49.890;5.930;2022-11-20T00:26:08;95176.56;;;4.10;100.00
49841;BME280;35738;49.890;5.930;2022-11-20T00:28:35;95177.56;;;4.14;100.00
49841;BME280;35738;49.890;5.930;2022-11-20T00:31:12;95173.72;;;4.15;100.00
49841;BME280;35738;49.890;5.930;2022-11-20T00:33:41;95179.66;;;4.18;100.00
49841;BME280;35738;49.890;5.930;2022-11-20T00:36:27;95181.28;;;4.19;100.00
49841;BME280;35738;49.890;5.930;2022-11-20T00:38:57;95174.41;;;4.21;100.00
49841;BME280;35738;49.890;5.930;2022-11-20T00:41:25;95177.63;;;4.23;100.00
49841;BME280;35738;49.890;5.930;2022-11-20T00:43:53;95164.66;;;4.20;100.00
49841;BME280;35738;49.890;5.930;2022-11-20T00:46:25;95173.50;;;4.26;100.00
49841;BME280;35738;49.890;5.930;2022-11-20T00:48:52;95173.50;;;4.26;100.00
49841;BME280;35738;49.890;5.930;2022-11-20T00:51:21;95172.81;;;4.20;100.00
49841;BME280;35738;49.890;5.930;2022-11-20T00:53:49;95176.84;;;4.23;100.00
49841;BME280;35738;49.890;5.930;2022-11-20T00:56:17;95171.19;;;4.19;100.00
49841;BME280;35738;49.890;5.930;2022-11-20T00:58:46;95165.44;;;4.21;100.00
49841;BME280;35738;49.890;5.930;2022-11-20T01:01:14;95167.38;;;4.20;100.00
49841;BME280;35738;49.890;5.930;2022-11-20T01:03:47;95167.88;;;4.22;100.00
49841;BME280;35738;49.890;5.930;2022-11-20T01:06:18;95173.63;;;4.21;100.00
49841;BME280;35738;49.890;5.930;2022-11-20T01:08:46;95157.91;;;4.18;100.00
49841;BME280;35738;49.890;5.930;2022-11-20T01:11:15;95161.72;;;4.17;100.00
49841;BME280;35738;49.890;5.930;2022-11-20T01:13:42;95153.06;;;4.14;100.00
49841;BME280;35738;49.890;5.930;2022-11-20T01:16:17;95155.59;;;4.11;100.00
49841;BME280;35738;49.890;5.930;2022-11-20T01:18:46;95161.75;;;4.03;100.00
49841;BME280;35738;49.890;5.930;2022-11-20T01:21:16;95163.09;;;3.92;100.00
49841;BME280;35738;49.890;5.930;2022-11-20T01:23:43;95170.06;;;3.84;100.00
49841;BME280;35738;49.890;5.930;2022-11-20T01:26:13;95170.78;;;3.76;100.00
49841;BME280;35738;49.890;5.930;2022-11-20T01:28:40;95164.53;;;3.75;100.00
49841;BME280;35738;49.890;5.930;2022-11-20T01:31:31;95167.44;;;3.79;100.00
49841;BME280;35738;49.890;5.930;2022-11-20T01:34:01;95169.06;;;3.80;100.00
49841;BME280;35738;49.890;5.930;2022-11-20T01:36:29;95167.34;;;3.84;100.00
49841;BME280;35738;49.890;5.930;2022-11-20T01:39:02;95174.09;;;3.87;100.00
49841;BME280;35738;49.890;5.930;2022-11-20T01:41:33;95169.84;;;3.94;100.00
49841;BME280;35738;49.890;5.930;2022-11-20T01:44:43;95174.97;;;3.96;100.00
49841;BME280;35738;49.890;5.930;2022-11-20T01:47:14;95168.94;;;3.99;100.00
49841;BME280;35738;49.890;5.930;2022-11-20T01:49:49;95161.06;;;3.97;100.00
49841;BME280;35738;49.890;5.930;2022-11-20T01:52:23;95157.75;;;4.00;100.00
49841;BME280;35738;49.890;5.930;2022-11-20T01:55:11;95158.84;;;3.99;100.00
49841;BME280;35738;49.890;5.930;2022-11-20T01:57:39;95157.75;;;4.00;100.00
49841;BME280;35738;49.890;5.930;2022-11-20T02:00:10;95166.91;;;4.04;100.00
49841;BME280;35738;49.890;5.930;2022-11-20T02:02:39;95163.69;;;4.02;100.00
49841;BME280;35738;49.890;5.930;2022-11-20T02:20:16;95162.56;;;4.03;100.00
49841;BME280;35738;49.890;5.930;2022-11-20T02:22:57;95165.78;;;4.05;100.00
49841;BME280;35738;49.890;5.930;2022-11-20T02:25:26;95163.06;;;4.05;100.00
49841;BME280;35738;49.890;5.930;2022-11-20T02:27:54;95161.16;;;4.06;100.00
49841;BME280;35738;49.890;5.930;2022-11-20T02:30:20;95161.97;;;4.06;100.00
49841;BME280;35738;49.890;5.930;2022-11-20T02:32:47;95153.28;;;4.04;100.00
49841;BME280;35738;49.890;5.930;2022-11-20T02:37:48;95154.59;;;4.07;100.00
49841;BME280;35738;49.890;5.930;2022-11-20T02:40:16;95159.75;;;4.08;100.00
49841;BME280;35738;49.890;5.930;2022-11-20T02:42:42;95159.75;;;4.08;100.00
49841;BME280;35738;49.890;5.930;2022-11-20T02:45:09;95148.84;;;4.08;100.00
49841;BME280;35738;49.890;5.930;2022-11-20T02:47:36;95152.38;;;4.09;100.00
49841;BME280;35738;49.890;5.930;2022-11-20T02:50:04;95152.06;;;4.10;100.00
49841;BME280;35738;49.890;5.930;2022-11-20T02:52:31;95140.19;;;4.06;100.00
49841;BME280;35738;49.890;5.930;2022-11-20T02:54:58;95141.00;;;4.07;100.00
49841;BME280;35738;49.890;5.930;2022-11-20T02:57:24;95154.09;;;4.05;100.00
49841;BME280;35738;49.890;5.930;2022-11-20T02:59:51;95151.69;;;4.03;100.00
49841;BME280;35738;49.890;5.930;2022-11-20T03:02:18;95155.53;;;4.02;100.00
49841;BME280;35738;49.890;5.930;2022-11-20T03:04:44;95150.69;;;3.99;100.00
49841;BME280;35738;49.890;5.930;2022-11-20T03:07:11;95150.69;;;3.99;100.00
49841;BME280;35738;49.890;5.930;2022-11-20T03:09:38;95156.94;;;4.00;100.00
49841;BME280;35738;49.890;5.930;2022-11-20T03:12:05;95146.06;;;4.00;100.00
49841;BME280;35738;49.890;5.930;2022-11-20T03:14:31;95149.78;;;4.04;100.00
49841;BME280;35738;49.890;5.930;2022-11-20T03:16:58;95154.72;;;4.02;100.00
49841;BME280;35738;49.890;5.930;2022-11-20T03:19:24;95158.53;;;4.01;100.00
49841;BME280;35738;49.890;5.930;2022-11-20T03:21:51;95151.38;;;4.05;100.00
49841;BME280;35738;49.890;5.930;2022-11-20T03:24:18;95154.72;;;4.02;100.00
49841;BME280;35738;49.890;5.930;2022-11-20T03:26:44;95146.66;;;3.97;100.00
49841;BME280;35738;49.890;5.930;2022-11-20T03:29:11;95147.47;;;3.97;100.00
49841;BME280;35738;49.890;5.930;2022-11-20T03:31:39;95143.13;;;3.96;100.00
49841;BME280;35738;49.890;5.930;2022-11-20T03:34:11;95143.75;;;3.93;100.00
49841;BME280;35738;49.890;5.930;2022-11-20T03:36:39;95142.25;;;3.87;100.00
49841;BME280;35738;49.890;5.930;2022-11-20T03:39:06;95142.56;;;3.86;100.00
49841;BME280;35738;49.890;5.930;2022-11-20T03:41:37;95139.03;;;3.85;100.00
49841;BME280;35738;49.890;5.930;2022-11-20T03:44:07;95145.56;;;3.84;100.00
49841;BME280;35738;49.890;5.930;2022-11-20T03:46:34;95130.88;;;3.85;100.00
49841;BME280;35738;49.890;5.930;2022-11-20T03:49:00;95145.56;;;3.84;100.00
49841;BME280;35738;49.890;5.930;2022-11-20T03:51:29;95138.53;;;3.83;100.00
49841;BME280;35738;49.890;5.930;2022-11-20T03:53:58;95148.59;;;3.82;100.00
49841;BME280;35738;49.890;5.930;2022-11-20T03:56:27;95146.69;;;3.83;100.00
49841;BME280;35738;49.890;5.930;2022-11-20T03:58:55;95136.53;;;3.75;100.00
49841;BME280;35738;49.890;5.930;2022-11-20T04:01:24;95136.53;;;3.75;100.00
49841;BME280;35738;49.890;5.930;2022-11-20T04:03:53;95140.44;;;3.69;100.00
49841;BME280;35738;49.890;5.930;2022-11-20T04:06:23;95146.97;;;3.68;100.00
49841;BME280;35738;49.890;5.930;2022-11-20T04:08:50;95139.72;;;3.63;100.00
49841;BME280;35738;49.890;5.930;2022-11-20T04:11:28;95144.66;;;3.61;100.00
49841;BME280;35738;49.890;5.930;2022-11-20T04:13:59;95147.69;;;3.60;100.00
49841;BME280;35738;49.890;5.930;2022-11-20T04:16:29;95139.44;;;3.51;100.00
49841;BME280;35738;49.890;5.930;2022-11-20T04:18:59;95140.25;;;3.51;100.00
49841;BME280;35738;49.890;5.930;2022-11-20T04:21:26;95150.91;;;3.48;100.00
49841;BME280;35738;49.890;5.930;2022-11-20T04:23:53;95140.84;;;3.48;100.00
49841;BME280;35738;49.890;5.930;2022-11-20T04:26:22;95146.28;;;3.48;100.00
49841;BME280;35738;49.890;5.930;2022-11-20T04:28:49;95144.06;;;3.50;100.00
49841;BME280;35738;49.890;5.930;2022-11-20T04:31:21;95143.25;;;3.50;100.00
49841;BME280;35738;49.890;5.930;2022-11-20T04:33:48;95152.72;;;3.53;100.00
49841;BME280;35738;49.890;5.930;2022-11-20T04:36:20;95155.44;;;3.53;100.00
49841;BME280;35738;49.890;5.930;2022-11-20T04:38:51;95147.28;;;3.53;100.00
49841;BME280;35738;49.890;5.930;2022-11-20T04:41:28;95153.22;;;3.55;100.00
49841;BME280;35738;49.890;5.930;2022-11-20T04:43:57;95140.25;;;3.51;100.00
49841;BME280;35738;49.890;5.930;2022-11-20T04:46:35;95149.72;;;3.54;100.00
49841;BME280;35738;49.890;5.930;2022-11-20T04:49:08;95146.28;;;3.48;100.00
49841;BME280;35738;49.890;5.930;2022-11-20T04:51:36;95146.28;;;3.48;100.00
49841;BME280;35738;49.890;5.930;2022-11-20T04:54:03;95149.00;;;3.48;100.00
49841;BME280;35738;49.890;5.930;2022-11-20T04:56:30;95151.53;;;3.45;100.00
49841;BME280;35738;49.890;5.930;2022-11-20T04:59:00;95157.47;;;3.47;100.00
49841;BME280;35738;49.890;5.930;2022-11-20T05:01:28;95157.97;;;3.49;100.00
49841;BME280;35738;49.890;5.930;2022-11-20T05:03:55;95147.91;;;3.49;100.00
49841;BME280;35738;49.890;5.930;2022-11-20T05:06:22;95156.66;;;3.46;100.00
49841;BME280;35738;49.890;5.930;2022-11-20T05:08:49;95152.03;;;3.47;100.00
49841;BME280;35738;49.890;5.930;2022-11-20T05:11:18;95157.75;;;3.45;100.00
49841;BME280;35738;49.890;5.930;2022-11-20T05:13:45;95153.44;;;3.44;100.00
49841;BME280;35738;49.890;5.930;2022-11-20T05:16:20;95154.13;;;3.50;100.00
49841;BME280;35738;49.890;5.930;2022-11-20T05:18:48;95155.44;;;3.53;100.00
49841;BME280;35738;49.890;5.930;2022-11-20T05:21:16;95158.78;;;3.49;100.00
49841;BME280;35738;49.890;5.930;2022-11-20T05:23:43;95147.91;;;3.49;100.00
49841;BME280;35738;49.890;5.930;2022-11-20T05:26:15;95154.94;;;3.50;100.00
49841;BME280;35738;49.890;5.930;2022-11-20T05:28:42;95156.06;;;3.49;100.00
49841;BME280;35738;49.890;5.930;2022-11-20T05:31:20;95149.50;;;3.50;100.00
49841;BME280;35738;49.890;5.930;2022-11-20T05:33:53;95158.47;;;3.51;100.00
49841;BME280;35738;49.890;5.930;2022-11-20T05:36:20;95162.81;;;3.52;100.00
49841;BME280;35738;49.890;5.930;2022-11-20T05:38:46;95148.50;;;3.46;100.00
49841;BME280;35738;49.890;5.930;2022-11-20T05:41:18;95151.72;;;3.48;100.00
49841;BME280;35738;49.890;5.930;2022-11-20T05:43:46;95143.56;;;3.48;100.00
49841;BME280;35738;49.890;5.930;2022-11-20T05:46:15;95139.25;;;3.47;100.00
49841;BME280;35738;49.890;5.930;2022-11-20T05:48:43;95150.63;;;3.49;100.00
49841;BME280;35738;49.890;5.930;2022-11-20T05:51:13;95147.78;;;3.55;100.00
49841;BME280;35738;49.890;5.930;2022-11-20T05:53:40;95151.13;;;3.51;100.00
49841;BME280;35738;49.890;5.930;2022-11-20T05:56:16;95147.09;;;3.49;100.00
49841;BME280;35738;49.890;5.930;2022-11-20T05:58:44;95144.38;;;3.49;100.00
49841;BME280;35738;49.890;5.930;2022-11-20T06:01:19;95144.38;;;3.49;100.00
49841;BME280;35738;49.890;5.930;2022-11-20T06:03:47;95150.63;;;3.49;100.00
49841;BME280;35738;49.890;5.930;2022-11-20T06:06:17;95149.31;;;3.47;100.00
49841;BME280;35738;49.890;5.930;2022-11-20T06:08:44;95157.16;;;3.48;100.00
49841;BME280;35738;49.890;5.930;2022-11-20T06:11:12;95157.47;;;3.47;100.00
49841;BME280;35738;49.890;5.930;2022-11-20T06:13:40;95160.88;;;3.53;100.00
49841;BME280;35738;49.890;5.930;2022-11-20T06:16:09;95158.78;;;3.49;100.00
49841;BME280;35738;49.890;5.930;2022-11-20T06:18:36;95152.22;;;3.50;100.00
49841;BME280;35738;49.890;5.930;2022-11-20T06:23:35;95151.41;;;3.50;100.00
49841;BME280;35738;49.890;5.930;2022-11-20T06:26:04;95153.34;;;3.49;100.00
49841;BME280;35738;49.890;5.930;2022-11-20T06:28:31;95156.25;;;3.53;100.00
49841;BME280;35738;49.890;5.930;2022-11-20T06:30:58;95154.13;;;3.50;100.00
49841;BME280;35738;49.890;5.930;2022-11-20T06:33:25;95152.53;;;3.49;100.00
49841;BME280;35738;49.890;5.930;2022-11-20T06:35:52;95154.13;;;3.50;100.00
49841;BME280;35738;49.890;5.930;2022-11-20T06:38:26;95155.44;;;3.53;100.00
49841;BME280;35738;49.890;5.930;2022-11-20T06:40:53;95169.03;;;3.53;100.00
49841;BME280;35738;49.890;5.930;2022-11-20T06:43:20;95164.72;;;3.51;100.00
49841;BME280;35738;49.890;5.930;2022-11-20T06:45:54;95170.94;;;3.52;100.00
49841;BME280;35738;49.890;5.930;2022-11-20T06:48:22;95176.91;;;3.54;100.00
49841;BME280;35738;49.890;5.930;2022-11-20T06:50:49;95175.59;;;3.51;100.00
49841;BME280;35738;49.890;5.930;2022-11-20T06:53:16;95170.44;;;3.50;100.00
49841;BME280;35738;49.890;5.930;2022-11-20T06:55:44;95181.81;;;3.52;100.00
49841;BME280;35738;49.890;5.930;2022-11-20T06:58:11;95170.94;;;3.52;100.00
49841;BME280;35738;49.890;5.930;2022-11-20T07:00:38;95191.91;;;3.51;100.00
49841;BME280;35738;49.890;5.930;2022-11-20T07:03:05;95180.53;;;3.49;100.00
49841;BME280;35738;49.890;5.930;2022-11-20T07:05:33;95185.16;;;3.49;100.00
49841;BME280;35738;49.890;5.930;2022-11-20T07:07:59;95185.56;;;3.56;100.00
49841;BME280;35738;49.890;5.930;2022-11-20T07:10:26;95172.88;;;3.51;100.00
49841;BME280;35738;49.890;5.930;2022-11-20T07:12:53;95191.28;;;3.55;100.00
49841;BME280;35738;49.890;5.930;2022-11-20T07:15:22;95185.97;;;3.49;100.00
49841;BME280;35738;49.890;5.930;2022-11-20T07:17:49;95185.84;;;3.55;100.00
49841;BME280;35738;49.890;5.930;2022-11-20T07:20:15;95192.41;;;3.54;100.00
49841;BME280;35738;49.890;5.930;2022-11-20T07:22:42;95180.53;;;3.49;100.00
49841;BME280;35738;49.890;5.930;2022-11-20T07:25:09;95198.44;;;3.50;100.00
49841;BME280;35738;49.890;5.930;2022-11-20T07:27:36;95198.44;;;3.50;100.00
49841;BME280;35738;49.890;5.930;2022-11-20T07:30:03;95186.97;;;3.54;100.00
49841;BME280;35738;49.890;5.930;2022-11-20T07:32:30;95203.78;;;3.56;100.00
49841;BME280;35738;49.890;5.930;2022-11-20T07:34:57;95202.56;;;3.62;100.00
49841;BME280;35738;49.890;5.930;2022-11-20T07:37:23;95203.97;;;3.59;100.00
49841;BME280;35738;49.890;5.930;2022-11-20T07:39:50;95197.63;;;3.64;100.00
49841;BME280;35738;49.890;5.930;2022-11-20T07:42:17;95189.59;;;3.59;100.00
49841;BME280;35738;49.890;5.930;2022-11-20T07:44:43;95195.31;;;3.57;100.00
49841;BME280;35738;49.890;5.930;2022-11-20T07:47:10;95197.13;;;3.62;100.00
49841;BME280;35738;49.890;5.930;2022-11-20T07:49:36;95203.06;;;3.64;100.00
49841;BME280;35738;49.890;5.930;2022-11-20T07:52:03;95190.09;;;3.61;100.00
49841;BME280;35738;49.890;5.930;2022-11-20T07:54:30;95199.44;;;3.68;100.00
49841;BME280;35738;49.890;5.930;2022-11-20T07:56:57;95206.31;;;3.66;100.00
49841;BME280;35738;49.890;5.930;2022-11-20T07:59:23;95213.56;;;3.70;100.00
49841;BME280;35738;49.890;5.930;2022-11-20T08:01:50;95194.41;;;3.62;100.00
49841;BME280;35738;49.890;5.930;2022-11-20T08:04:17;95203.06;;;3.64;100.00
49841;BME280;35738;49.890;5.930;2022-11-20T08:06:43;95201.97;;;3.65;100.00
49841;BME280;35738;49.890;5.930;2022-11-20T08:09:10;95199.84;;;3.62;100.00
49841;BME280;35738;49.890;5.930;2022-11-20T08:11:36;95199.25;;;3.65;100.00
49841;BME280;35738;49.890;5.930;2022-11-20T08:14:22;95212.34;;;3.63;100.00
49841;BME280;35738;49.890;5.930;2022-11-20T08:16:49;95213.44;;;3.62;100.00
49841;BME280;35738;49.890;5.930;2022-11-20T08:19:17;95213.44;;;3.62;100.00
49841;BME280;35738;49.890;5.930;2022-11-20T08:21:45;95217.78;;;3.63;100.00
49841;BME280;35738;49.890;5.930;2022-11-20T08:24:12;95216.38;;;3.65;100.00
49841;BME280;35738;49.890;5.930;2022-11-20T08:26:39;95214.97;;;3.68;100.00
49841;BME280;35738;49.890;5.930;2022-11-20T08:29:06;95218.19;;;3.70;100.00
49841;BME280;35738;49.890;5.930;2022-11-20T08:31:33;95230.09;;;3.74;100.00
49841;BME280;35738;49.890;5.930;2022-11-20T08:34:00;95232.81;;;3.74;100.00
49841;BME280;35738;49.890;5.930;2022-11-20T08:36:34;95236.41;;;3.69;100.00
49841;BME280;35738;49.890;5.930;2022-11-20T08:39:01;95220.31;;;3.73;100.00
49841;BME280;35738;49.890;5.930;2022-11-20T08:41:29;95217.38;;;3.69;100.00
49841;BME280;35738;49.890;5.930;2022-11-20T08:44:00;95223.94;;;3.68;100.00
49841;BME280;35738;49.890;5.930;2022-11-20T08:46:32;95212.44;;;3.71;100.00
49841;BME280;35738;49.890;5.930;2022-11-20T08:49:11;95230.41;;;3.72;100.00
49841;BME280;35738;49.890;5.930;2022-11-20T08:51:39;95222.44;;;3.76;100.00
49841;BME280;35738;49.890;5.930;2022-11-20T08:54:06;95222.94;;;3.78;100.00
49841;BME280;35738;49.890;5.930;2022-11-20T08:56:32;95228.09;;;3.79;100.00
49841;BME280;35738;49.890;5.930;2022-11-20T08:58:59;95208.75;;;3.81;100.00
49841;BME280;35738;49.890;5.930;2022-11-20T09:01:46;95214.09;;;3.86;100.00
49841;BME280;35738;49.890;5.930;2022-11-20T09:04:13;95211.06;;;3.88;100.00
49841;BME280;35738;49.890;5.930;2022-11-20T09:06:40;95221.03;;;3.92;100.00
49841;BME280;35738;49.890;5.930;2022-11-20T09:09:07;95223.75;;;3.92;100.00
49841;BME280;35738;49.890;5.930;2022-11-20T09:11:34;95219.13;;;3.93;100.00
49841;BME280;35738;49.890;5.930;2022-11-20T09:14:02;95195.75;;;3.78;100.00
49841;BME280;35738;49.890;5.930;2022-11-20T09:16:29;95218.41;;;3.87;100.00
49841;BME280;35738;49.890;5.930;2022-11-20T09:18:55;95212.56;;;3.80;100.00
49841;BME280;35738;49.890;5.930;2022-11-20T09:21:42;95217.06;;;3.71;100.00
49841;BME280;35738;49.890;5.930;2022-11-20T09:24:09;95200.50;;;3.72;100.00
49841;BME280;35738;49.890;5.930;2022-11-20T09:26:35;95216.41;;;3.79;100.00
49841;BME280;35738;49.890;5.930;2022-11-20T09:29:02;95205.91;;;3.86;100.00
49841;BME280;35738;49.890;5.930;2022-11-20T09:31:28;95213.47;;;4.03;100.00
49841;BME280;35738;49.890;5.930;2022-11-20T09:33:55;95207.31;;;4.11;100.00
49841;BME280;35738;49.890;5.930;2022-11-20T09:36:21;95220.38;;;4.23;100.00
49841;BME280;35738;49.890;5.930;2022-11-20T09:38:48;95209.72;;;4.12;100.00
49841;BME280;35738;49.890;5.930;2022-11-20T09:50:17;95200.22;;;4.24;100.00
49841;BME280;35738;49.890;5.930;2022-11-20T09:53:28;95214.56;;;4.15;100.00
49841;BME280;35738;49.890;5.930;2022-11-20T09:55:57;95208.09;;;4.11;100.00
49841;BME280;35738;49.890;5.930;2022-11-20T09:58:47;95207.88;;;4.22;100.00
49841;BME280;35738;49.890;5.930;2022-11-20T10:01:17;95208.31;;;4.15;100.00
49841;BME280;35738;49.890;5.930;2022-11-20T10:04:06;95205.19;;;4.08;100.00
49841;BME280;35738;49.890;5.930;2022-11-20T10:06:44;95193.00;;;4.05;100.00
49841;BME280;35738;49.890;5.930;2022-11-20T10:09:39;95203.84;;;4.19;100.00
49841;BME280;35738;49.890;5.930;2022-11-20T10:12:31;95203.22;;;4.36;100.00
49841;BME280;35738;49.890;5.930;2022-11-20T10:15:36;95200.38;;;4.41;100.00
49841;BME280;35738;49.890;5.930;2022-11-20T10:18:13;95180.94;;;4.34;100.00
49841;BME280;35738;49.890;5.930;2022-11-20T10:20:55;95186.69;;;4.46;100.00
49841;BME280;35738;49.890;5.930;2022-11-20T10:26:03;95191.59;;;4.44;100.00
49841;BME280;35738;49.890;5.930;2022-11-20T10:31:31;95178.38;;;4.51;100.00
49841;BME280;35738;49.890;5.930;2022-11-20T10:34:02;95181.19;;;4.60;100.00
49841;BME280;35738;49.890;5.930;2022-11-20T10:36:44;95183.44;;;4.44;100.00
49841;BME280;35738;49.890;5.930;2022-11-20T10:39:28;95171.16;;;4.46;100.00
49841;BME280;35738;49.890;5.930;2022-11-20T10:41:58;95173.56;;;4.34;100.00
49841;BME280;35738;49.890;5.930;2022-11-20T10:44:28;95177.19;;;4.43;100.00
49841;BME280;35738;49.890;5.930;2022-11-20T10:47:19;95183.34;;;4.49;100.00
49841;BME280;35738;49.890;5.930;2022-11-20T10:49:49;95185.63;;;4.56;100.00
49841;BME280;35738;49.890;5.930;2022-11-20T10:52:28;95182.97;;;4.64;100.00
49841;BME280;35738;49.890;5.930;2022-11-20T10:57:49;95166.50;;;4.47;100.00
49841;BME280;35738;49.890;5.930;2022-11-20T11:00:18;95172.59;;;4.30;100.00
49841;BME280;35738;49.890;5.930;2022-11-20T11:02:50;95167.91;;;4.44;100.00
49841;BME280;35738;49.890;5.930;2022-11-20T11:07:50;95162.13;;;4.24;100.00
49841;BME280;35738;49.890;5.930;2022-11-20T11:13:04;95154.94;;;4.28;100.00
49841;BME280;35738;49.890;5.930;2022-11-20T11:15:39;95147.78;;;4.32;100.00
49841;BME280;35738;49.890;5.930;2022-11-20T11:18:10;95147.50;;;4.20;100.00
49841;BME280;35738;49.890;5.930;2022-11-20T11:20:38;95142.88;;;4.20;100.00
49841;BME280;35738;49.890;5.930;2022-11-20T11:23:04;95148.38;;;4.29;100.00
49841;BME280;35738;49.890;5.930;2022-11-20T11:25:34;95131.56;;;4.27;100.00
49841;BME280;35738;49.890;5.930;2022-11-20T11:30:44;95131.09;;;4.69;100.00
49841;BME280;35738;49.890;5.930;2022-11-20T11:33:19;95116.13;;;4.58;100.00
49841;BME280;35738;49.890;5.930;2022-11-20T11:35:49;95131.59;;;4.49;100.00
49841;BME280;35738;49.890;5.930;2022-11-20T11:38:23;95127.97;;;4.54;100.00
49841;BME280;35738;49.890;5.930;2022-11-20T11:40:54;95123.84;;;4.42;100.00
49841;BME280;35738;49.890;5.930;2022-11-20T11:43:25;95137.88;;;4.36;100.00
49841;BME280;35738;49.890;5.930;2022-11-20T11:46:27;95118.75;;;4.27;100.00
49841;BME280;35738;49.890;5.930;2022-11-20T11:49:09;95115.91;;;4.32;100.00
49841;BME280;35738;49.890;5.930;2022-11-20T11:54:28;95123.16;;;4.37;100.00
49841;BME280;35738;49.890;5.930;2022-11-20T11:57:00;95118.22;;;4.39;100.00
49841;BME280;35738;49.890;5.930;2022-11-20T11:59:51;95117.38;;;4.16;100.00
49841;BME280;35738;49.890;5.930;2022-11-20T12:10:20;95106.31;;;4.12;100.00
49841;BME280;35738;49.890;5.930;2022-11-20T12:12:52;95089.38;;;4.15;100.00
49841;BME280;35738;49.890;5.930;2022-11-20T12:15:32;95096.00;;;4.23;100.00
49841;BME280;35738;49.890;5.930;2022-11-20T12:17:59;95086.09;;;4.27;100.00
49841;BME280;35738;49.890;5.930;2022-11-20T12:20:32;95094.94;;;4.33;100.00
49841;BME280;35738;49.890;5.930;2022-11-20T12:23:09;95080.66;;;4.27;100.00
49841;BME280;35738;49.890;5.930;2022-11-20T12:25:43;95083.63;;;4.17;100.00
49841;BME280;35738;49.890;5.930;2022-11-20T12:28:52;95079.47;;;4.20;100.00
49841;BME280;35738;49.890;5.930;2022-11-20T12:31:38;95075.09;;;4.32;100.00
49841;BME280;35738;49.890;5.930;2022-11-20T12:39:35;95061.34;;;4.37;100.00
49841;BME280;35738;49.890;5.930;2022-11-20T12:45:29;95051.56;;;4.36;100.00
49841;BME280;35738;49.890;5.930;2022-11-20T12:53:34;95038.16;;;4.40;100.00
49841;BME280;35738;49.890;5.930;2022-11-20T12:58:40;95027.03;;;4.28;100.00
49841;BME280;35738;49.890;5.930;2022-11-20T13:01:24;95030.25;;;4.30;100.00
49841;BME280;35738;49.890;5.930;2022-11-20T13:04:32;95026.72;;;4.29;100.00
49841;BME280;35738;49.890;5.930;2022-11-20T13:07:05;95019.22;;;4.12;100.00
49841;BME280;35738;49.890;5.930;2022-11-20T13:09:43;95015.91;;;4.15;100.00
49841;BME280;35738;49.890;5.930;2022-11-20T13:14:48;95013.78;;;4.12;100.00
49841;BME280;35738;49.890;5.930;2022-11-20T13:17:36;95015.66;;;4.03;100.00
49841;BME280;35738;49.890;5.930;2022-11-20T13:20:06;95004.28;;;4.01;100.00
49841;BME280;35738;49.890;5.930;2022-11-20T13:22:47;94997.53;;;3.99;100.00
49841;BME280;35738;49.890;5.930;2022-11-20T13:25:36;94993.50;;;3.96;100.00
49841;BME280;35738;49.890;5.930;2022-11-20T13:28:25;94989.81;;;3.92;100.00
49841;BME280;35738;49.890;5.930;2022-11-20T13:30:53;94990.59;;;3.93;100.00
49841;BME280;35738;49.890;5.930;2022-11-20T13:33:33;94983.25;;;3.93;100.00
49841;BME280;35738;49.890;5.930;2022-11-20T13:36:05;94985.66;;;3.95;100.00
49841;BME280;35738;49.890;5.930;2022-11-20T13:38:49;94978.91;;;3.92;100.00
49841;BME280;35738;49.890;5.930;2022-11-20T13:41:34;94971.38;;;3.89;100.00
49841;BME280;35738;49.890;5.930;2022-11-20T13:44:38;94970.69;;;3.83;100.00
49841;BME280;35738;49.890;5.930;2022-11-20T13:47:20;94962.53;;;3.83;100.00
49841;BME280;35738;49.890;5.930;2022-11-20T13:49:48;94958.53;;;3.81;100.00
49841;BME280;35738;49.890;5.930;2022-11-20T13:55:18;94949.06;;;3.78;100.00
49841;BME280;35738;49.890;5.930;2022-11-20T14:00:25;94939.13;;;3.74;100.00
49841;BME280;35738;49.890;5.930;2022-11-20T14:05:37;94941.69;;;3.57;100.00
49841;BME280;35738;49.890;5.930;2022-11-20T14:08:10;94939.25;;;3.55;100.00
49841;BME280;35738;49.890;5.930;2022-11-20T14:10:39;94928.69;;;3.54;100.00
49841;BME280;35738;49.890;5.930;2022-11-20T14:13:18;94921.16;;;3.50;100.00
49841;BME280;35738;49.890;5.930;2022-11-20T14:15:45;94911.41;;;3.49;100.00
49841;BME280;35738;49.890;5.930;2022-11-20T14:18:14;94909.78;;;3.48;100.00
49841;BME280;35738;49.890;5.930;2022-11-20T14:20:42;94913.94;;;3.46;100.00
49841;BME280;35738;49.890;5.930;2022-11-20T14:23:10;94916.16;;;3.44;100.00
49841;BME280;35738;49.890;5.930;2022-11-20T14:25:37;94906.59;;;3.46;100.00
49841;BME280;35738;49.890;5.930;2022-11-20T14:28:20;94893.41;;;3.40;100.00
49841;BME280;35738;49.890;5.930;2022-11-20T14:30:49;94888.28;;;3.38;100.00
49841;BME280;35738;49.890;5.930;2022-11-20T14:33:17;94885.09;;;3.36;100.00
49841;BME280;35738;49.890;5.930;2022-11-20T14:35:54;94889.22;;;3.34;100.00
49841;BME280;35738;49.890;5.930;2022-11-20T14:38:25;94876.44;;;3.34;100.00
49841;BME280;35738;49.890;5.930;2022-11-20T14:40:52;94871.31;;;3.33;100.00
49841;BME280;35738;49.890;5.930;2022-11-20T14:45:59;94863.78;;;3.30;100.00
49841;BME280;35738;49.890;5.930;2022-11-20T14:48:32;94856.34;;;3.22;100.00